Terminal Aerodrome Forecast
Issued by NWS Memphis, TN

Home | Current Version | Previous Version | Text Only | Print | Product List | Glossary On
Versions: 1 2 3 4 5 6 7 8 9 10 11 12 13 14 15 16
114
FTUS44 KMEG 241250 AAA
TAFMKL
TAF AMD
KMKL 241250Z 2413/2512 VRB02KT P6SM SKC
     FM241800 VRB04KT P6SM VCTS SCT050CB
     FM250000 00000KT P6SM SKC
     FM250700 00000KT 3SM BR SKC
      TEMPO 2508/2512 1SM BR=

USA.gov is the U.S. government's official web portal to all federal, state and local government web resources and services.